Time;durP1;ratioP1;P1;durP2;ratioP2;P2;SDS_P1;SDS_P2;PMS_P1;PMS_P2;Temp;Humidity;BMP_temperature;BMP_pressure;BME280_temperature;BME280_humidity;BME280_pressure;Samples;Min_cycle;Max_cycle;Signal;HPM_P1;HPM_P2
2020/12/12 00:00:30;;;;;;;55.08;23.20;;;0.70;99.90;;;;;;5094558;28;20175;-58
2020/12/12 00:02:56;;;;;;;59.85;22.73;;;0.70;99.90;;;;;;5094288;28;20224;-58
2020/12/12 00:05:21;;;;;;;60.55;23.80;;;0.80;99.90;;;;;;5097825;28;20167;-58
2020/12/12 00:07:47;;;;;;;53.70;22.50;;;0.80;99.90;;;;;;5097934;28;20191;-58
2020/12/12 00:10:12;;;;;;;53.75;21.90;;;0.80;99.90;;;;;;5097785;28;20171;-58
2020/12/12 00:12:38;;;;;;;55.83;21.90;;;0.80;99.90;;;;;;5098094;28;20160;-58
2020/12/12 00:15:04;;;;;;;53.22;21.30;;;0.90;99.90;;;;;;5097964;28;20257;-58
2020/12/12 00:17:29;;;;;;;55.72;22.98;;;0.80;99.90;;;;;;5097714;28;20179;-58
2020/12/12 00:19:55;;;;;;;54.90;21.90;;;0.90;99.90;;;;;;5098095;28;20186;-58
2020/12/12 00:22:20;;;;;;;53.03;21.80;;;0.90;99.90;;;;;;5097890;28;20171;-58
2020/12/12 00:24:46;;;;;;;56.65;22.30;;;0.90;99.90;;;;;;5097538;28;20187;-58
2020/12/12 00:27:11;;;;;;;58.20;22.48;;;0.90;99.90;;;;;;5097439;28;20191;-58
2020/12/12 00:29:37;;;;;;;56.13;22.15;;;0.90;99.90;;;;;;5097483;28;20167;-58
2020/12/12 00:32:02;;;;;;;56.03;22.40;;;0.90;99.90;;;;;;5097364;28;20217;-58
2020/12/12 00:34:28;;;;;;;54.17;22.23;;;0.90;99.90;;;;;;5097677;28;20160;-58
2020/12/12 00:36:54;;;;;;;55.92;23.02;;;0.90;99.90;;;;;;5097326;28;20171;-58
2020/12/12 00:39:21;;;;;;;58.58;22.20;;;0.90;99.90;;;;;;5096415;28;20187;-58
2020/12/12 00:41:46;;;;;;;55.53;21.80;;;0.80;99.90;;;;;;5097205;28;20168;-58
2020/12/12 00:44:12;;;;;;;52.20;21.52;;;0.80;99.90;;;;;;5097242;28;20198;-58
2020/12/12 00:46:38;;;;;;;54.70;22.83;;;0.80;99.90;;;;;;5097024;28;20649;-58
2020/12/12 00:49:08;;;;;;;60.53;23.45;;;0.80;99.90;;;;;;5097411;28;20202;-58
2020/12/12 00:51:34;;;;;;;57.13;22.67;;;0.80;99.90;;;;;;5097335;28;20195;-59
2020/12/12 00:54:00;;;;;;;58.20;23.60;;;0.80;99.90;;;;;;5097064;28;20167;-58
2020/12/12 00:56:25;;;;;;;66.93;23.88;;;0.80;99.90;;;;;;5096918;28;20250;-58
2020/12/12 00:58:51;;;;;;;62.47;23.50;;;0.90;99.90;;;;;;5097207;28;20182;-59
2020/12/12 01:01:17;;;;;;;63.20;24.02;;;0.90;99.90;;;;;;5097147;28;20179;-58
2020/12/12 01:03:43;;;;;;;70.65;24.75;;;0.90;99.90;;;;;;5097051;28;20517;-58
2020/12/12 01:06:12;;;;;;;73.35;25.38;;;0.90;99.90;;;;;;5097068;28;20171;-58
2020/12/12 01:08:38;;;;;;;65.10;24.77;;;0.90;99.90;;;;;;5096757;28;20657;-58
2020/12/12 01:11:05;;;;;;;62.97;25.27;;;0.90;99.90;;;;;;5097077;28;20181;-58
2020/12/12 01:13:31;;;;;;;59.00;23.02;;;0.90;99.90;;;;;;5096759;28;20171;-58
2020/12/12 01:15:57;;;;;;;62.10;23.05;;;0.90;99.90;;;;;;5096300;28;20201;-58
2020/12/12 01:18:22;;;;;;;61.60;22.83;;;0.90;99.90;;;;;;5096685;28;20189;-58
2020/12/12 01:20:48;;;;;;;60.13;22.88;;;0.90;99.90;;;;;;5096774;28;20171;-58
2020/12/12 01:23:13;;;;;;;56.50;22.35;;;0.90;99.90;;;;;;5097400;28;20201;-58
2020/12/12 01:25:39;;;;;;;60.88;22.83;;;0.90;99.90;;;;;;5097336;28;20614;-58
2020/12/12 01:28:05;;;;;;;58.25;21.55;;;0.90;99.90;;;;;;5097890;28;20250;-58
2020/12/12 01:30:31;;;;;;;57.67;23.63;;;0.90;99.90;;;;;;5103485;28;20540;-58
2020/12/12 01:32:57;;;;;;;65.32;23.35;;;0.90;99.90;;;;;;5102305;28;20586;-58
2020/12/12 01:35:22;;;;;;;67.20;24.08;;;0.90;99.90;;;;;;5103475;28;20186;-58
2020/12/12 01:37:47;;;;;;;60.80;22.95;;;0.90;99.90;;;;;;5107192;28;20492;-58
2020/12/12 01:40:13;;;;;;;55.30;21.95;;;1.00;99.90;;;;;;5106553;28;20172;-59
2020/12/12 01:42:39;;;;;;;54.63;23.42;;;1.00;99.90;;;;;;5108464;28;20168;-57
2020/12/12 01:45:08;;;;;;;60.33;22.35;;;0.90;99.90;;;;;;5111626;28;20199;-58
2020/12/12 01:47:34;;;;;;;57.15;23.08;;;1.00;99.90;;;;;;5109205;28;20225;-59
2020/12/12 01:50:00;;;;;;;58.15;22.10;;;1.00;99.90;;;;;;5096844;28;20164;-58
2020/12/12 01:52:26;;;;;;;59.13;23.30;;;1.00;99.90;;;;;;5077934;28;20160;-58
2020/12/12 01:54:52;;;;;;;60.67;22.20;;;1.00;99.90;;;;;;5095251;28;20198;-58
2020/12/12 01:57:19;;;;;;;51.58;21.35;;;1.00;99.90;;;;;;5095733;28;20557;-58
2020/12/12 01:59:45;;;;;;;68.85;24.77;;;1.00;99.90;;;;;;5096044;28;20187;-58
2020/12/12 02:02:12;;;;;;;58.38;21.95;;;1.00;99.90;;;;;;5095687;28;20213;-58
2020/12/12 02:04:38;;;;;;;62.75;23.40;;;1.00;99.90;;;;;;5095763;28;20195;-58
2020/12/12 02:07:04;;;;;;;62.55;23.40;;;1.00;99.90;;;;;;5094835;28;20607;-58
2020/12/12 02:09:29;;;;;;;72.72;25.02;;;0.90;99.90;;;;;;5095917;28;20175;-58
2020/12/12 02:11:57;;;;;;;60.28;23.50;;;0.90;99.90;;;;;;5095429;28;20164;-58
2020/12/12 02:14:23;;;;;;;67.93;24.50;;;0.90;99.90;;;;;;5095063;28;20175;-58
2020/12/12 02:17:00;;;;;;;67.93;23.77;;;0.90;99.90;;;;;;5097260;28;20485;-58
2020/12/12 02:19:25;;;;;;;64.70;24.23;;;0.90;99.90;;;;;;5095753;28;20468;-58
2020/12/12 02:21:58;;;;;;;67.22;23.88;;;0.90;99.90;;;;;;5094453;28;20182;-58
2020/12/12 02:24:29;;;;;;;66.13;22.90;;;0.90;99.90;;;;;;5095290;28;20195;-58
2020/12/12 02:26:59;;;;;;;62.67;25.88;;;0.90;99.90;;;;;;5094959;28;20187;-58
2020/12/12 02:30:06;;;;;;;69.43;24.90;;;0.90;99.90;;;;;;5095282;28;20270;-58
2020/12/12 02:32:13;;;;;;;64.93;23.77;;;0.90;99.90;;;;;;5089571;28;20213;-58
2020/12/12 02:34:39;;;;;;;68.05;23.70;;;0.90;99.90;;;;;;5095483;28;20235;-58
2020/12/12 02:37:04;;;;;;;64.95;25.15;;;1.00;99.90;;;;;;5095008;28;20223;-58
2020/12/12 02:39:30;;;;;;;66.47;24.27;;;1.00;99.90;;;;;;5095967;28;20176;-58
2020/12/12 02:41:55;;;;;;;67.93;24.80;;;1.00;99.90;;;;;;5095041;28;20167;-58
2020/12/12 02:44:21;;;;;;;69.88;25.77;;;1.00;99.90;;;;;;5095044;28;20556;-58
2020/12/12 02:46:46;;;;;;;69.20;25.35;;;1.00;99.90;;;;;;5094871;28;20254;-58
2020/12/12 02:49:12;;;;;;;69.25;24.58;;;0.90;99.90;;;;;;5095284;28;20321;-57
2020/12/12 02:51:41;;;;;;;65.20;25.70;;;1.00;99.90;;;;;;5093962;28;20217;-57
2020/12/12 02:54:06;;;;;;;65.03;24.73;;;1.00;99.90;;;;;;5095221;28;20171;-59
2020/12/12 02:56:32;;;;;;;68.25;25.85;;;1.00;99.90;;;;;;5095092;28;20170;-58
2020/12/12 02:58:57;;;;;;;73.05;27.10;;;1.00;99.90;;;;;;5094898;28;20181;-59
2020/12/12 03:01:24;;;;;;;70.13;26.40;;;1.00;99.90;;;;;;5094893;28;20618;-57
2020/12/12 03:03:49;;;;;;;58.83;22.75;;;1.00;99.90;;;;;;5093752;28;20525;-58
2020/12/12 03:06:15;;;;;;;66.75;24.75;;;1.00;99.90;;;;;;5094830;28;20163;-57
2020/12/12 03:08:40;;;;;;;67.88;24.95;;;0.90;99.90;;;;;;5094933;28;20159;-57
2020/12/12 03:11:06;;;;;;;68.75;25.38;;;0.90;99.90;;;;;;5095565;28;20167;-57
2020/12/12 03:13:31;;;;;;;70.80;26.50;;;0.90;99.90;;;;;;5099888;28;20284;-57
2020/12/12 03:15:57;;;;;;;64.88;25.67;;;1.00;99.90;;;;;;5100918;28;20175;-58
2020/12/12 03:18:22;;;;;;;64.82;24.30;;;1.00;99.90;;;;;;5100178;28;20168;-57
2020/12/12 03:20:48;;;;;;;71.15;26.27;;;1.00;99.90;;;;;;5104914;28;20195;-57
2020/12/12 03:23:13;;;;;;;67.10;25.98;;;1.00;99.90;;;;;;5101048;28;20179;-57
2020/12/12 03:25:40;;;;;;;69.82;25.77;;;1.00;99.90;;;;;;5109074;28;20168;-56
2020/12/12 03:28:06;;;;;;;64.68;24.65;;;1.00;99.90;;;;;;5109218;28;20167;-57
2020/12/12 03:30:32;;;;;;;76.45;25.60;;;1.00;99.90;;;;;;5102617;28;20251;-58
2020/12/12 03:32:57;;;;;;;69.15;25.77;;;1.00;99.90;;;;;;5093722;28;20171;-57
2020/12/12 03:35:23;;;;;;;67.93;25.77;;;1.00;99.90;;;;;;5094612;28;20172;-58
2020/12/12 03:37:48;;;;;;;72.10;26.67;;;1.00;99.90;;;;;;5096020;28;20521;-58
2020/12/12 03:40:14;;;;;;;67.57;25.02;;;1.00;99.90;;;;;;5098470;28;20207;-58
2020/12/12 03:42:39;;;;;;;75.88;27.02;;;1.00;99.90;;;;;;5098321;28;20198;-58
2020/12/12 03:45:05;;;;;;;77.10;25.95;;;1.10;99.90;;;;;;5098403;28;20202;-58
2020/12/12 03:47:30;;;;;;;69.85;26.30;;;1.10;99.90;;;;;;5098747;28;20560;-58
2020/12/12 03:49:57;;;;;;;77.05;25.98;;;1.10;99.90;;;;;;5098527;28;20595;-58
2020/12/12 03:52:23;;;;;;;78.68;26.02;;;1.10;99.90;;;;;;5098147;28;20168;-57
2020/12/12 03:54:48;;;;;;;73.47;25.80;;;1.10;99.90;;;;;;5098429;28;20167;-58
2020/12/12 03:57:14;;;;;;;70.50;25.85;;;1.10;99.90;;;;;;5098423;28;20171;-58
2020/12/12 03:59:39;;;;;;;80.93;27.52;;;1.10;99.90;;;;;;5098301;28;20243;-58
2020/12/12 04:02:05;;;;;;;77.25;26.50;;;1.20;99.90;;;;;;5097981;28;20213;-58
2020/12/12 04:04:30;;;;;;;76.10;26.75;;;1.20;99.90;;;;;;5097872;28;20608;-58
2020/12/12 04:06:56;;;;;;;82.43;27.23;;;1.20;99.90;;;;;;5098010;28;20170;-57
2020/12/12 04:09:21;;;;;;;86.00;28.40;;;1.20;99.90;;;;;;5097896;28;20521;-58
2020/12/12 04:11:47;;;;;;;77.80;28.15;;;1.20;99.90;;;;;;5098149;28;20170;-59
2020/12/12 04:14:12;;;;;;;77.82;27.38;;;1.20;99.90;;;;;;5097738;28;20168;-59
2020/12/12 04:16:38;;;;;;;81.93;28.13;;;1.20;99.90;;;;;;5098021;28;20179;-58
2020/12/12 04:19:03;;;;;;;77.65;27.58;;;1.30;99.90;;;;;;5097605;28;20203;-58
2020/12/12 04:21:29;;;;;;;78.30;28.10;;;1.30;99.90;;;;;;5097966;28;20179;-58
2020/12/12 04:23:54;;;;;;;77.55;29.23;;;1.30;99.90;;;;;;5097743;28;20240;-58
2020/12/12 04:26:20;;;;;;;87.35;29.45;;;1.30;99.90;;;;;;5097902;28;20155;-58
2020/12/12 04:28:45;;;;;;;79.55;29.13;;;1.30;99.90;;;;;;5097663;28;20233;-58
2020/12/12 04:31:11;;;;;;;88.63;30.90;;;1.30;99.90;;;;;;5097412;28;20168;-58
2020/12/12 04:33:36;;;;;;;82.85;28.58;;;1.40;99.90;;;;;;5097331;28;20181;-58
2020/12/12 04:36:03;;;;;;;85.45;30.33;;;1.40;99.90;;;;;;5097433;28;20159;-58
2020/12/12 04:38:31;;;;;;;81.68;29.52;;;1.40;99.90;;;;;;5097542;28;20496;-58
2020/12/12 04:40:58;;;;;;;83.32;29.00;;;1.50;99.90;;;;;;5097526;28;20168;-58
2020/12/12 04:43:26;;;;;;;82.32;31.35;;;1.50;99.90;;;;;;5097407;28;20222;-58
2020/12/12 04:45:52;;;;;;;85.75;30.52;;;1.50;99.90;;;;;;5096345;28;20269;-59
2020/12/12 04:48:18;;;;;;;78.93;30.20;;;1.50;99.90;;;;;;5096635;28;20249;-58
2020/12/12 04:50:45;;;;;;;81.40;30.63;;;1.50;99.90;;;;;;5096450;28;20164;-58
2020/12/12 04:53:17;;;;;;;85.80;30.40;;;1.50;99.90;;;;;;5095963;28;20270;-58
2020/12/12 04:55:45;;;;;;;83.93;31.50;;;1.60;99.90;;;;;;5097082;28;20194;-58
2020/12/12 04:58:14;;;;;;;80.20;30.15;;;1.60;99.90;;;;;;5097195;28;20285;-59
2020/12/12 05:00:44;;;;;;;82.45;30.08;;;1.60;99.90;;;;;;5097165;28;20171;-58
2020/12/12 05:03:15;;;;;;;89.55;32.08;;;1.60;99.90;;;;;;5097002;28;20147;-58
2020/12/12 05:05:40;;;;;;;85.65;31.90;;;1.60;99.90;;;;;;5096795;28;20552;-58
2020/12/12 05:08:08;;;;;;;78.10;31.83;;;1.70;99.90;;;;;;5096901;28;20174;-58
2020/12/12 05:10:41;;;;;;;87.05;31.55;;;1.70;99.90;;;;;;5096963;28;20163;-58
2020/12/12 05:13:30;;;;;;;82.50;31.65;;;1.70;99.90;;;;;;5096588;28;20596;-58
2020/12/12 05:15:57;;;;;;;77.93;30.33;;;1.70;99.90;;;;;;5096904;28;20152;-58
2020/12/12 05:18:24;;;;;;;85.85;32.42;;;1.70;99.90;;;;;;5096455;28;20164;-58
2020/12/12 05:20:50;;;;;;;85.88;32.95;;;1.70;99.90;;;;;;5096548;28;20229;-58
2020/12/12 05:23:23;;;;;;;86.20;33.13;;;1.70;99.90;;;;;;5096225;28;20152;-58
2020/12/12 05:25:50;;;;;;;74.22;31.55;;;1.70;99.90;;;;;;5096747;28;20152;-58
2020/12/12 05:28:17;;;;;;;81.05;31.88;;;1.70;99.90;;;;;;5096550;28;20172;-58
2020/12/12 05:30:44;;;;;;;74.78;32.20;;;1.80;99.90;;;;;;5096517;28;20501;-58
2020/12/12 05:33:13;;;;;;;74.13;31.67;;;1.80;99.90;;;;;;5096263;28;20620;-58
2020/12/12 05:35:39;;;;;;;75.32;32.15;;;1.80;99.90;;;;;;5096235;28;20163;-58
2020/12/12 05:38:06;;;;;;;73.38;32.60;;;1.80;99.90;;;;;;5096148;28;20209;-58
2020/12/12 05:40:33;;;;;;;82.70;32.80;;;1.90;99.90;;;;;;5095456;28;20304;-58
2020/12/12 05:43:09;;;;;;;77.78;31.25;;;1.90;99.90;;;;;;5096260;28;20586;-58
2020/12/12 05:45:35;;;;;;;72.60;32.80;;;1.90;99.90;;;;;;5096027;28;20213;-58
2020/12/12 05:48:00;;;;;;;73.10;32.85;;;1.90;99.90;;;;;;5095998;28;20488;-58
2020/12/12 05:50:26;;;;;;;70.82;31.30;;;1.90;99.90;;;;;;5095867;28;20171;-58
2020/12/12 05:52:54;;;;;;;81.70;34.45;;;1.90;99.90;;;;;;5096177;28;20592;-58
2020/12/12 05:55:26;;;;;;;76.28;31.65;;;2.00;99.90;;;;;;5095841;28;20172;-58
2020/12/12 05:57:54;;;;;;;74.43;33.33;;;2.00;99.90;;;;;;5095825;28;20190;-58
2020/12/12 06:00:25;;;;;;;70.25;32.22;;;1.90;99.90;;;;;;5094539;28;20250;-58
2020/12/12 06:03:14;;;;;;;68.10;31.35;;;1.90;99.90;;;;;;5095296;28;20209;-58
2020/12/12 06:05:46;;;;;;;66.38;32.50;;;2.00;99.90;;;;;;5094783;28;20648;-59
2020/12/12 06:08:12;;;;;;;72.07;32.47;;;2.00;99.90;;;;;;5095120;28;20234;-58
2020/12/12 06:10:41;;;;;;;74.68;32.38;;;2.00;99.90;;;;;;5094868;28;20168;-58
2020/12/12 06:13:07;;;;;;;72.85;32.58;;;2.00;99.90;;;;;;5094877;28;20254;-58
2020/12/12 06:15:36;;;;;;;74.07;31.38;;;2.00;99.90;;;;;;5095488;28;20186;-58
2020/12/12 06:18:26;;;;;;;72.80;30.92;;;2.00;99.90;;;;;;5095472;28;20617;-58
2020/12/12 06:20:53;;;;;;;65.43;32.03;;;2.10;99.90;;;;;;5095738;28;20239;-58
2020/12/12 06:23:19;;;;;;;70.65;32.78;;;2.00;99.90;;;;;;5095253;28;20152;-58
2020/12/12 06:25:44;;;;;;;66.20;30.63;;;2.10;99.90;;;;;;5094196;28;20182;-58
2020/12/12 06:28:20;;;;;;;74.20;33.25;;;2.00;99.90;;;;;;5095270;28;20160;-58
2020/12/12 06:30:46;;;;;;;71.50;33.85;;;2.10;99.90;;;;;;5094553;28;20168;-58
2020/12/12 06:33:12;;;;;;;67.57;32.95;;;2.10;99.90;;;;;;5094603;28;20177;-58
2020/12/12 06:35:40;;;;;;;61.22;30.13;;;2.20;99.90;;;;;;5095296;28;20165;-58
2020/12/12 06:38:28;;;;;;;66.07;32.90;;;2.20;99.90;;;;;;5095127;28;20233;-58
2020/12/12 06:40:58;;;;;;;69.25;32.75;;;2.20;99.90;;;;;;5095078;28;20159;-58
2020/12/12 06:43:34;;;;;;;68.18;32.03;;;2.30;99.90;;;;;;5095264;28;20521;-58
2020/12/12 06:46:04;;;;;;;62.25;31.85;;;2.30;99.90;;;;;;5094920;28;20183;-58
2020/12/12 06:48:31;;;;;;;63.75;33.85;;;2.40;99.90;;;;;;5095416;28;20155;-58
2020/12/12 06:50:58;;;;;;;66.78;32.97;;;2.40;99.90;;;;;;5094960;28;20167;-58
2020/12/12 06:53:29;;;;;;;63.53;31.20;;;2.50;99.90;;;;;;5095236;28;20218;-58
2020/12/12 06:56:15;;;;;;;67.97;33.42;;;2.50;99.90;;;;;;5094963;28;20155;-57
2020/12/12 06:58:44;;;;;;;66.95;32.05;;;2.50;99.90;;;;;;5095279;28;20152;-58
2020/12/12 07:01:29;;;;;;;64.40;33.67;;;2.50;99.90;;;;;;5095069;28;20488;-58
2020/12/12 07:04:04;;;;;;;62.28;31.63;;;2.50;99.90;;;;;;5095125;28;20191;-57
2020/12/12 07:06:32;;;;;;;66.63;32.60;;;2.60;99.90;;;;;;5094763;28;20155;-58
2020/12/12 07:09:08;;;;;;;65.57;33.17;;;2.50;99.90;;;;;;5094942;28;20170;-58
2020/12/12 07:11:34;;;;;;;63.65;32.03;;;2.60;99.90;;;;;;5093980;28;20580;-58
2020/12/12 07:14:01;;;;;;;63.40;31.85;;;2.60;99.90;;;;;;5098530;28;20171;-59
2020/12/12 07:16:27;;;;;;;64.97;32.67;;;2.60;99.90;;;;;;5098865;28;20478;-58
2020/12/12 07:18:53;;;;;;;66.20;32.50;;;2.60;99.90;;;;;;5098900;28;20599;-58
2020/12/12 07:21:18;;;;;;;67.60;34.10;;;2.60;99.90;;;;;;5099131;28;20228;-58
2020/12/12 07:23:45;;;;;;;64.43;34.08;;;2.60;99.90;;;;;;5099462;28;20521;-58
2020/12/12 07:26:11;;;;;;;62.58;31.88;;;2.60;99.90;;;;;;5098850;28;20202;-58
2020/12/12 07:28:37;;;;;;;63.08;31.92;;;2.60;99.90;;;;;;5102274;28;20176;-58
2020/12/12 07:31:03;;;;;;;62.08;32.40;;;2.60;99.90;;;;;;5105500;28;20618;-58
2020/12/12 07:33:29;;;;;;;62.55;32.50;;;2.60;99.90;;;;;;5105472;28;20174;-58
2020/12/12 07:35:54;;;;;;;61.38;32.45;;;2.60;99.90;;;;;;5109754;28;20682;-58
2020/12/12 07:38:20;;;;;;;57.97;31.20;;;2.70;99.90;;;;;;5105489;28;20163;-57
2020/12/12 07:40:45;;;;;;;60.53;31.42;;;2.70;99.90;;;;;;5105839;28;20500;-57
2020/12/12 07:43:11;;;;;;;60.35;32.22;;;2.70;99.90;;;;;;5101672;28;20164;-59
2020/12/12 07:46:00;;;;;;;57.33;30.88;;;2.70;99.90;;;;;;5099103;28;20259;-59
2020/12/12 07:48:27;;;;;;;61.75;32.13;;;2.70;99.90;;;;;;5099082;28;20201;-57
2020/12/12 07:50:52;;;;;;;61.30;31.85;;;2.80;99.90;;;;;;5099021;28;20230;-59
2020/12/12 07:53:19;;;;;;;63.47;31.27;;;2.80;99.90;;;;;;5099699;28;20648;-58
2020/12/12 07:55:53;;;;;;;60.95;31.73;;;2.80;99.90;;;;;;5098992;28;20622;-58
2020/12/12 07:58:31;;;;;;;58.75;30.73;;;2.80;99.90;;;;;;5099175;28;20280;-58
2020/12/12 08:01:01;;;;;;;61.13;31.13;;;2.80;99.90;;;;;;5100324;28;20155;-58
2020/12/12 08:03:27;;;;;;;60.40;31.13;;;2.80;99.90;;;;;;5099370;28;20164;-59
2020/12/12 08:06:09;;;;;;;58.33;28.85;;;2.80;99.90;;;;;;5099335;28;20168;-59
2020/12/12 08:08:36;;;;;;;61.65;30.33;;;2.80;99.90;;;;;;5100111;28;20152;-59
2020/12/12 08:11:03;;;;;;;57.53;28.38;;;2.80;99.90;;;;;;5100135;28;20596;-58
2020/12/12 08:13:29;;;;;;;54.28;30.00;;;2.80;99.90;;;;;;5098769;28;20164;-59
2020/12/12 08:16:27;;;;;;;60.83;30.40;;;2.80;99.90;;;;;;5098290;28;20177;-59
2020/12/12 08:19:03;;;;;;;58.65;31.17;;;2.80;99.90;;;;;;5099420;28;20179;-58
2020/12/12 08:21:29;;;;;;;58.05;28.95;;;2.90;99.90;;;;;;5098478;28;20236;-58
2020/12/12 08:23:54;;;;;;;56.67;29.52;;;2.90;99.90;;;;;;5097241;28;20277;-58
2020/12/12 08:26:21;;;;;;;52.63;29.42;;;2.90;99.90;;;;;;5098051;28;20179;-59
2020/12/12 08:28:47;;;;;;;58.83;30.15;;;2.90;99.90;;;;;;5098081;28;20159;-59
2020/12/12 08:31:20;;;;;;;60.33;30.00;;;2.90;99.90;;;;;;5097842;28;20163;-60
2020/12/12 08:33:54;;;;;;;56.50;28.45;;;2.90;99.90;;;;;;5097802;28;20160;-59
2020/12/12 08:36:23;;;;;;;62.45;30.35;;;2.90;99.90;;;;;;5097814;28;20651;-57
2020/12/12 08:38:53;;;;;;;57.08;27.88;;;2.90;99.90;;;;;;5098177;28;20171;-58
2020/12/12 08:41:20;;;;;;;58.53;30.05;;;2.80;99.90;;;;;;5099711;28;20586;-58
2020/12/12 08:43:46;;;;;;;57.88;28.77;;;2.90;99.90;;;;;;5097698;28;20205;-58
2020/12/12 08:46:16;;;;;;;58.15;29.00;;;2.90;99.90;;;;;;5098132;28;20203;-59
2020/12/12 08:48:42;;;;;;;58.00;28.77;;;2.90;99.90;;;;;;5098944;28;20254;-58
2020/12/12 08:51:09;;;;;;;59.25;29.20;;;2.90;99.90;;;;;;5098415;28;20160;-59
2020/12/12 08:53:44;;;;;;;58.50;28.63;;;2.90;99.90;;;;;;5098387;28;20221;-58
2020/12/12 08:56:21;;;;;;;63.05;28.20;;;2.90;99.90;;;;;;5099340;28;20154;-57
2020/12/12 08:58:54;;;;;;;59.17;26.67;;;3.00;99.90;;;;;;5098070;28;20175;-58
2020/12/12 09:01:34;;;;;;;55.58;26.55;;;3.00;99.90;;;;;;5098208;28;20229;-58
2020/12/12 09:04:08;;;;;;;55.38;27.95;;;3.00;99.90;;;;;;5097674;28;20191;-59
2020/12/12 09:06:43;;;;;;;54.10;26.60;;;3.00;99.90;;;;;;5097271;28;20177;-58
2020/12/12 09:09:17;;;;;;;54.35;27.20;;;3.00;99.90;;;;;;5097557;28;20155;-59
2020/12/12 09:12:10;;;;;;;48.30;25.80;;;3.10;99.90;;;;;;5099762;28;20156;-59
2020/12/12 09:14:42;;;;;;;53.53;26.70;;;3.10;99.90;;;;;;5095544;28;20183;-58
2020/12/12 09:17:09;;;;;;;54.25;26.42;;;3.10;99.90;;;;;;5097073;28;20213;-58
2020/12/12 09:19:38;;;;;;;54.85;27.58;;;3.10;99.90;;;;;;5097309;28;20179;-59
2020/12/12 09:22:08;;;;;;;58.80;26.55;;;3.10;99.90;;;;;;5097741;28;20163;-59
2020/12/12 09:24:33;;;;;;;58.17;27.38;;;3.10;99.90;;;;;;5097026;28;20194;-58
2020/12/12 09:26:59;;;;;;;52.03;27.90;;;3.10;99.90;;;;;;5097097;28;20164;-59
2020/12/12 09:29:25;;;;;;;55.50;27.58;;;3.10;99.90;;;;;;5096932;28;20232;-58
2020/12/12 09:31:52;;;;;;;52.08;25.42;;;3.20;99.90;;;;;;5097026;28;20497;-59
2020/12/12 09:34:18;;;;;;;56.85;26.83;;;3.20;99.90;;;;;;5097111;28;20176;-59
2020/12/12 09:36:44;;;;;;;54.97;24.55;;;3.20;99.90;;;;;;5098407;28;20176;-58
2020/12/12 09:39:10;;;;;;;54.28;24.63;;;3.20;99.90;;;;;;5099509;28;20183;-59
2020/12/12 09:41:35;;;;;;;56.00;26.10;;;3.20;99.90;;;;;;5098700;28;20547;-58
2020/12/12 09:44:01;;;;;;;53.97;24.65;;;3.20;99.90;;;;;;5097223;28;20188;-58
2020/12/12 09:46:26;;;;;;;53.35;25.70;;;3.10;99.90;;;;;;5097087;28;20180;-58
2020/12/12 09:48:52;;;;;;;53.08;25.45;;;3.10;99.90;;;;;;5097822;28;20185;-58
2020/12/12 09:51:18;;;;;;;52.33;25.63;;;3.10;99.90;;;;;;5097721;28;20250;-59
2020/12/12 09:53:44;;;;;;;54.75;23.42;;;3.10;99.90;;;;;;5095929;28;20179;-58
2020/12/12 09:56:14;;;;;;;57.88;25.15;;;3.10;99.90;;;;;;5096261;28;20171;-58
2020/12/12 09:58:41;;;;;;;51.08;23.40;;;3.20;99.90;;;;;;5095784;28;20167;-58
2020/12/12 10:01:06;;;;;;;57.58;24.83;;;3.10;99.90;;;;;;5095831;28;20178;-58
2020/12/12 10:03:32;;;;;;;53.47;24.15;;;3.20;99.90;;;;;;5095619;28;20159;-59
2020/12/12 10:05:57;;;;;;;55.80;25.35;;;3.20;99.90;;;;;;5096013;28;20160;-58
2020/12/12 10:08:23;;;;;;;59.65;25.52;;;3.10;99.90;;;;;;5096912;28;20595;-59
2020/12/12 10:10:49;;;;;;;56.80;24.52;;;3.20;99.90;;;;;;5096944;28;20520;-58
2020/12/12 10:13:14;;;;;;;57.97;25.02;;;3.20;99.90;;;;;;5095724;28;20630;-59
2020/12/12 10:15:40;;;;;;;55.75;25.48;;;3.30;99.90;;;;;;5095638;28;20183;-59
2020/12/12 10:18:08;;;;;;;53.65;25.42;;;3.30;99.90;;;;;;5095914;28;20182;-58
2020/12/12 10:20:35;;;;;;;51.88;23.05;;;3.40;99.90;;;;;;5098546;28;20566;-57
2020/12/12 10:23:00;;;;;;;53.25;23.80;;;3.40;99.90;;;;;;5095993;28;20164;-59
2020/12/12 10:25:25;;;;;;;53.58;22.83;;;3.40;99.90;;;;;;5095500;28;20195;-58
2020/12/12 10:27:51;;;;;;;51.55;23.10;;;3.40;99.90;;;;;;5095380;28;20595;-58
2020/12/12 10:30:16;;;;;;;50.08;25.08;;;3.40;99.90;;;;;;5095953;28;20175;-57
2020/12/12 10:32:42;;;;;;;53.78;24.05;;;3.40;99.90;;;;;;5095664;28;20183;-58
2020/12/12 10:35:10;;;;;;;50.83;24.13;;;3.50;99.90;;;;;;5095343;28;20497;-57
2020/12/12 10:37:36;;;;;;;54.50;23.70;;;3.50;99.90;;;;;;5094186;28;20514;-57
2020/12/12 10:40:11;;;;;;;54.35;23.77;;;3.50;99.90;;;;;;5095570;28;20171;-57
2020/12/12 10:42:37;;;;;;;56.22;24.23;;;3.60;99.90;;;;;;5097671;28;20166;-58
2020/12/12 10:45:04;;;;;;;49.55;22.48;;;3.60;99.90;;;;;;5098321;28;20194;-58
2020/12/12 10:47:30;;;;;;;47.85;22.98;;;3.70;99.90;;;;;;5099705;28;20155;-57
2020/12/12 10:49:56;;;;;;;43.83;21.52;;;3.70;99.90;;;;;;5100227;28;20159;-59
2020/12/12 10:52:22;;;;;;;47.92;22.73;;;3.70;99.90;;;;;;5105957;28;20168;-58
2020/12/12 10:54:49;;;;;;;47.55;21.33;;;3.70;99.90;;;;;;5106883;28;20254;-57
2020/12/12 10:57:14;;;;;;;45.10;21.08;;;3.70;99.90;;;;;;5097323;28;20286;-58
2020/12/12 10:59:42;;;;;;;39.80;20.45;;;3.80;99.90;;;;;;5094916;28;20491;-58
2020/12/12 11:02:09;;;;;;;42.80;21.17;;;3.80;99.90;;;;;;5094589;28;20167;-57
2020/12/12 11:04:35;;;;;;;42.67;21.13;;;3.80;99.90;;;;;;5094815;28;20191;-57
2020/12/12 11:07:00;;;;;;;43.45;20.70;;;3.90;99.90;;;;;;5094791;28;20297;-57
2020/12/12 11:09:26;;;;;;;39.92;20.08;;;3.90;99.90;;;;;;5094498;28;20495;-58
2020/12/12 11:11:51;;;;;;;40.42;20.40;;;3.90;99.90;;;;;;5094647;28;20182;-57
2020/12/12 11:14:17;;;;;;;42.00;20.02;;;3.90;99.90;;;;;;5094552;28;20501;-57
2020/12/12 11:16:42;;;;;;;39.53;19.30;;;4.00;99.90;;;;;;5094900;28;20172;-58
2020/12/12 11:19:08;;;;;;;42.20;20.63;;;4.00;99.90;;;;;;5094530;28;20163;-58
2020/12/12 11:21:33;;;;;;;43.25;20.45;;;4.10;99.90;;;;;;5094564;28;20179;-58
2020/12/12 11:23:59;;;;;;;42.08;20.23;;;4.10;99.90;;;;;;5094785;28;20615;-58
2020/12/12 11:26:25;;;;;;;38.50;19.67;;;4.10;99.90;;;;;;5094641;28;20171;-58
2020/12/12 11:28:51;;;;;;;39.05;20.10;;;4.20;99.90;;;;;;5094701;28;20494;-58
2020/12/12 11:31:18;;;;;;;40.13;19.58;;;4.20;99.90;;;;;;5094445;28;20159;-58
2020/12/12 11:33:47;;;;;;;36.63;18.85;;;4.20;99.90;;;;;;5094607;28;20275;-57
2020/12/12 11:46:46;;;;;;;35.47;17.70;;;4.40;99.90;;;;;;5094290;28;20680;-57
2020/12/12 11:49:11;;;;;;;38.17;19.77;;;4.40;99.90;;;;;;5094492;28;20179;-58
2020/12/12 11:51:37;;;;;;;35.45;19.17;;;4.40;99.90;;;;;;5094098;28;20252;-58
2020/12/12 11:54:03;;;;;;;37.33;19.17;;;4.50;99.90;;;;;;5093592;28;20163;-57
2020/12/12 11:56:29;;;;;;;38.63;18.95;;;4.50;99.90;;;;;;5094577;28;20534;-58
2020/12/12 11:58:54;;;;;;;34.10;17.52;;;4.50;99.90;;;;;;5094159;28;20200;-58
2020/12/12 12:01:24;;;;;;;35.70;17.85;;;4.50;99.90;;;;;;5097915;28;20192;-58
2020/12/12 12:03:51;;;;;;;36.83;18.10;;;4.50;99.90;;;;;;5098076;28;20278;-58
2020/12/12 12:06:17;;;;;;;33.10;18.20;;;4.50;99.90;;;;;;5098087;28;20224;-58
2020/12/12 12:13:41;;;;;;;33.08;17.83;;;4.40;99.90;;;;;;5097972;28;20208;-58
2020/12/12 12:16:06;;;;;;;33.70;18.77;;;4.40;99.90;;;;;;5098075;28;20175;-58
2020/12/12 12:18:32;;;;;;;39.45;18.38;;;4.50;99.90;;;;;;5097795;28;20156;-58
2020/12/12 12:21:01;;;;;;;36.13;17.15;;;4.50;99.90;;;;;;5097518;28;20228;-58
2020/12/12 12:23:27;;;;;;;33.90;17.90;;;4.50;99.90;;;;;;5096661;28;20160;-57
2020/12/12 12:25:53;;;;;;;34.65;17.85;;;4.50;99.90;;;;;;5097531;28;20718;-58
2020/12/12 12:28:19;;;;;;;33.20;17.17;;;4.50;99.90;;;;;;5098088;28;20614;-58
2020/12/12 12:30:46;;;;;;;35.47;17.35;;;4.50;99.90;;;;;;5097763;28;20168;-58
2020/12/12 12:33:11;;;;;;;31.05;16.38;;;4.60;99.90;;;;;;5097569;28;20246;-58
2020/12/12 12:35:37;;;;;;;30.60;16.98;;;4.60;99.90;;;;;;5097615;28;20256;-58
2020/12/12 12:38:02;;;;;;;32.53;17.52;;;4.60;99.90;;;;;;5097164;28;20221;-58
2020/12/12 12:40:28;;;;;;;31.55;16.85;;;4.60;99.90;;;;;;5097213;28;20195;-58
2020/12/12 12:42:53;;;;;;;31.67;15.73;;;4.60;99.90;;;;;;5097222;28;20566;-58
2020/12/12 12:45:19;;;;;;;33.17;17.90;;;4.60;99.90;;;;;;5095934;28;20210;-58
2020/12/12 12:47:44;;;;;;;32.95;17.88;;;4.70;99.90;;;;;;5097527;28;20182;-57
2020/12/12 12:50:13;;;;;;;31.77;16.45;;;4.70;99.90;;;;;;5096821;28;20167;-58
2020/12/12 12:52:39;;;;;;;30.92;16.35;;;4.60;99.90;;;;;;5097261;28;20233;-57